sensor_id;sensor_type;location;lat;lon;timestamp;pressure;altitude;pressure_sealevel;temperature
34310;BMP280;61664;48.112;11.662;2023-03-01T00:01:39;95983.41;;;5.92
34310;BMP280;61664;48.112;11.662;2023-03-01T00:04:06;95993.47;;;6.00
34310;BMP280;61664;48.112;11.662;2023-03-01T00:06:33;95976.19;;;5.92
34310;BMP280;61664;48.112;11.662;2023-03-01T00:09:00;95995.03;;;5.98
34310;BMP280;61664;48.112;11.662;2023-03-01T00:11:31;95983.25;;;5.99
34310;BMP280;61664;48.112;11.662;2023-03-01T00:14:00;95987.81;;;5.98
34310;BMP280;61664;48.112;11.662;2023-03-01T00:16:38;95988.13;;;6.04
34310;BMP280;61664;48.112;11.662;2023-03-01T00:19:11;95970.47;;;5.94
34310;BMP280;61664;48.112;11.662;2023-03-01T00:21:39;95990.31;;;6.06
34310;BMP280;61664;48.112;11.662;2023-03-01T00:24:07;95978.38;;;5.97
34310;BMP280;61664;48.112;11.662;2023-03-01T00:26:34;95975.44;;;5.92
34310;BMP280;61664;48.112;11.662;2023-03-01T00:29:01;95973.19;;;5.90
34310;BMP280;61664;48.112;11.662;2023-03-01T00:31:32;95988.94;;;6.01
34310;BMP280;61664;48.112;11.662;2023-03-01T00:34:03;95983.63;;;6.01
34310;BMP280;61664;48.112;11.662;2023-03-01T00:36:34;95977.53;;;6.00
34310;BMP280;61664;48.112;11.662;2023-03-01T00:39:04;95972.66;;;5.99
34310;BMP280;61664;48.112;11.662;2023-03-01T00:41:31;95963.69;;;5.93
34310;BMP280;61664;48.112;11.662;2023-03-01T00:44:00;95966.34;;;5.93
34310;BMP280;61664;48.112;11.662;2023-03-01T00:46:27;95981.72;;;6.02
34310;BMP280;61664;48.112;11.662;2023-03-01T00:48:57;95971.91;;;5.98
34310;BMP280;61664;48.112;11.662;2023-03-01T00:51:27;95976.06;;;5.99
34310;BMP280;61664;48.112;11.662;2023-03-01T00:53:57;95960.97;;;5.96
34310;BMP280;61664;48.112;11.662;2023-03-01T00:56:24;95956.88;;;5.92
34310;BMP280;61664;48.112;11.662;2023-03-01T00:58:51;95944.00;;;5.90
34310;BMP280;61664;48.112;11.662;2023-03-01T01:01:24;95962.44;;;5.97
34310;BMP280;61664;48.112;11.662;2023-03-01T01:04:08;95963.19;;;5.98
34310;BMP280;61664;48.112;11.662;2023-03-01T01:06:42;95959.06;;;5.97
34310;BMP280;61664;48.112;11.662;2023-03-01T01:09:11;95945.91;;;5.90
34310;BMP280;61664;48.112;11.662;2023-03-01T01:11:49;95944.38;;;5.92
34310;BMP280;61664;48.112;11.662;2023-03-01T01:14:18;95943.13;;;5.97
34310;BMP280;61664;48.112;11.662;2023-03-01T01:16:45;95936.03;;;5.90
34310;BMP280;61664;48.112;11.662;2023-03-01T01:19:13;95912.75;;;5.82
34310;BMP280;61664;48.112;11.662;2023-03-01T01:21:41;95914.94;;;5.87
34310;BMP280;61664;48.112;11.662;2023-03-01T01:24:10;95934.50;;;5.93
34310;BMP280;61664;48.112;11.662;2023-03-01T01:26:38;95937.50;;;5.95
34310;BMP280;61664;48.112;11.662;2023-03-01T01:29:05;95929.94;;;5.93
34310;BMP280;61664;48.112;11.662;2023-03-01T01:31:33;95930.28;;;5.95
34310;BMP280;61664;48.112;11.662;2023-03-01T01:34:04;95929.13;;;5.96
34310;BMP280;61664;48.112;11.662;2023-03-01T01:36:32;95923.06;;;5.96
34310;BMP280;61664;48.112;11.662;2023-03-01T01:38:59;95916.34;;;5.91
34310;BMP280;61664;48.112;11.662;2023-03-01T01:41:28;95910.63;;;5.93
34310;BMP280;61664;48.112;11.662;2023-03-01T01:44:26;95901.00;;;5.83
34310;BMP280;61664;48.112;11.662;2023-03-01T01:49:32;95909.97;;;5.89
34310;BMP280;61664;48.112;11.662;2023-03-01T01:52:17;95901.66;;;5.87
34310;BMP280;61664;48.112;11.662;2023-03-01T01:57:26;95907.31;;;5.89
34310;BMP280;61664;48.112;11.662;2023-03-01T01:59:58;95892.22;;;5.86
34310;BMP280;61664;48.112;11.662;2023-03-01T02:02:27;95896.25;;;5.90
34310;BMP280;61664;48.112;11.662;2023-03-01T02:05:08;95888.25;;;5.94
34310;BMP280;61664;48.112;11.662;2023-03-01T02:07:39;95883.69;;;5.94
34310;BMP280;61664;48.112;11.662;2023-03-01T02:10:08;95885.75;;;5.87
34310;BMP280;61664;48.112;11.662;2023-03-01T02:12:36;95889.81;;;5.91
34310;BMP280;61664;48.112;11.662;2023-03-01T02:15:05;95881.94;;;5.88
34310;BMP280;61664;48.112;11.662;2023-03-01T02:17:33;95890.22;;;5.90
34310;BMP280;61664;48.112;11.662;2023-03-01T02:22:39;95878.75;;;5.77
34310;BMP280;61664;48.112;11.662;2023-03-01T02:30:48;95880.94;;;5.82
34310;BMP280;61664;48.112;11.662;2023-03-01T02:33:38;95857.69;;;5.69
34310;BMP280;61664;48.112;11.662;2023-03-01T02:36:12;95878.00;;;5.76
34310;BMP280;61664;48.112;11.662;2023-03-01T02:38:42;95871.88;;;5.79
34310;BMP280;61664;48.112;11.662;2023-03-01T02:41:13;95871.31;;;5.72
34310;BMP280;61664;48.112;11.662;2023-03-01T02:43:41;95866.00;;;5.72
34310;BMP280;61664;48.112;11.662;2023-03-01T02:46:17;95863.00;;;5.69
34310;BMP280;61664;48.112;11.662;2023-03-01T02:49:22;95873.59;;;5.69
34310;BMP280;61664;48.112;11.662;2023-03-01T02:55:10;95873.56;;;5.73
34310;BMP280;61664;48.112;11.662;2023-03-01T02:57:44;95866.66;;;5.76
34310;BMP280;61664;48.112;11.662;2023-03-01T03:00:17;95857.34;;;5.67
34310;BMP280;61664;48.112;11.662;2023-03-01T03:02:51;95863.81;;;5.66
34310;BMP280;61664;48.112;11.662;2023-03-01T03:05:28;95862.13;;;5.56
34310;BMP280;61664;48.112;11.662;2023-03-01T03:07:56;95863.56;;;5.61
34310;BMP280;61664;48.112;11.662;2023-03-01T03:10:30;95865.44;;;5.60
34310;BMP280;61664;48.112;11.662;2023-03-01T03:13:02;95870.72;;;5.60
34310;BMP280;61664;48.112;11.662;2023-03-01T03:15:30;95869.69;;;5.58
34310;BMP280;61664;48.112;11.662;2023-03-01T03:17:58;95869.34;;;5.56
34310;BMP280;61664;48.112;11.662;2023-03-01T03:20:27;95878.69;;;5.60
34310;BMP280;61664;48.112;11.662;2023-03-01T03:22:57;95861.84;;;5.51
34310;BMP280;61664;48.112;11.662;2023-03-01T03:25:27;95865.59;;;5.53
34310;BMP280;61664;48.112;11.662;2023-03-01T03:27:56;95873.22;;;5.51
34310;BMP280;61664;48.112;11.662;2023-03-01T03:30:32;95857.78;;;5.46
34310;BMP280;61664;48.112;11.662;2023-03-01T03:32:59;95855.97;;;5.43
34310;BMP280;61664;48.112;11.662;2023-03-01T03:35:31;95871.34;;;5.48
34310;BMP280;61664;48.112;11.662;2023-03-01T03:38:01;95864.91;;;5.49
34310;BMP280;61664;48.112;11.662;2023-03-01T03:40:37;95852.56;;;5.43
34310;BMP280;61664;48.112;11.662;2023-03-01T03:43:14;95858.84;;;5.49
34310;BMP280;61664;48.112;11.662;2023-03-01T03:45:43;95858.19;;;5.45
34310;BMP280;61664;48.112;11.662;2023-03-01T03:48:11;95862.66;;;5.48
34310;BMP280;61664;48.112;11.662;2023-03-01T03:50:39;95848.31;;;5.45
34310;BMP280;61664;48.112;11.662;2023-03-01T03:53:11;95857.34;;;5.48
34310;BMP280;61664;48.112;11.662;2023-03-01T03:55:38;95830.31;;;5.36
34310;BMP280;61664;48.112;11.662;2023-03-01T03:58:09;95837.72;;;5.45
34310;BMP280;61664;48.112;11.662;2023-03-01T04:00:39;95834.06;;;5.39
34310;BMP280;61664;48.112;11.662;2023-03-01T04:03:06;95821.97;;;5.38
34310;BMP280;61664;48.112;11.662;2023-03-01T04:05:35;95830.25;;;5.40
34310;BMP280;61664;48.112;11.662;2023-03-01T04:08:03;95838.81;;;5.48
34310;BMP280;61664;48.112;11.662;2023-03-01T04:10:34;95828.09;;;5.35
34310;BMP280;61664;48.112;11.662;2023-03-01T04:13:03;95840.84;;;5.40
34310;BMP280;61664;48.112;11.662;2023-03-01T04:15:31;95839.44;;;5.35
34310;BMP280;61664;48.112;11.662;2023-03-01T04:17:59;95841.00;;;5.33
34310;BMP280;61664;48.112;11.662;2023-03-01T04:20:29;95848.19;;;5.32
34310;BMP280;61664;48.112;11.662;2023-03-01T04:22:59;95846.31;;;5.33
34310;BMP280;61664;48.112;11.662;2023-03-01T04:25:35;95836.44;;;5.33
34310;BMP280;61664;48.112;11.662;2023-03-01T04:28:01;95834.59;;;5.30
34310;BMP280;61664;48.112;11.662;2023-03-01T04:30:28;95837.19;;;5.34
34310;BMP280;61664;48.112;11.662;2023-03-01T04:32:55;95838.00;;;5.31
34310;BMP280;61664;48.112;11.662;2023-03-01T04:35:22;95834.22;;;5.32
34310;BMP280;61664;48.112;11.662;2023-03-01T04:37:49;95818.44;;;5.25
34310;BMP280;61664;48.112;11.662;2023-03-01T04:40:16;95832.72;;;5.31
34310;BMP280;61664;48.112;11.662;2023-03-01T04:42:43;95827.47;;;5.27
34310;BMP280;61664;48.112;11.662;2023-03-01T04:45:11;95837.75;;;5.25
34310;BMP280;61664;48.112;11.662;2023-03-01T04:47:42;95818.63;;;5.14
34310;BMP280;61664;48.112;11.662;2023-03-01T04:50:13;95834.78;;;5.20
34310;BMP280;61664;48.112;11.662;2023-03-01T04:52:41;95824.34;;;5.13
34310;BMP280;61664;48.112;11.662;2023-03-01T04:55:09;95829.97;;;5.15
34310;BMP280;61664;48.112;11.662;2023-03-01T04:57:36;95810.56;;;5.01
34310;BMP280;61664;48.112;11.662;2023-03-01T05:00:05;95818.84;;;5.03
34310;BMP280;61664;48.112;11.662;2023-03-01T05:02:59;95817.16;;;4.93
34310;BMP280;61664;48.112;11.662;2023-03-01T05:05:33;95828.72;;;4.99
34310;BMP280;61664;48.112;11.662;2023-03-01T05:08:04;95824.25;;;4.96
34310;BMP280;61664;48.112;11.662;2023-03-01T05:10:33;95832.19;;;4.96
34310;BMP280;61664;48.112;11.662;2023-03-01T05:13:03;95824.75;;;4.91
34310;BMP280;61664;48.112;11.662;2023-03-01T05:15:31;95813.19;;;4.82
34310;BMP280;61664;48.112;11.662;2023-03-01T05:17:59;95808.63;;;4.82
34310;BMP280;61664;48.112;11.662;2023-03-01T05:20:30;95828.19;;;4.88
34310;BMP280;61664;48.112;11.662;2023-03-01T05:22:59;95825.59;;;4.85
34310;BMP280;61664;48.112;11.662;2023-03-01T05:25:27;95809.06;;;4.77
34310;BMP280;61664;48.112;11.662;2023-03-01T05:28:03;95810.91;;;4.80
34310;BMP280;61664;48.112;11.662;2023-03-01T05:30:32;95811.66;;;4.81
34310;BMP280;61664;48.112;11.662;2023-03-01T05:33:00;95809.16;;;4.73
34310;BMP280;61664;48.112;11.662;2023-03-01T05:35:29;95803.53;;;4.71
34310;BMP280;61664;48.112;11.662;2023-03-01T05:37:56;95815.22;;;4.74
34310;BMP280;61664;48.112;11.662;2023-03-01T05:40:24;95808.75;;;4.75
34310;BMP280;61664;48.112;11.662;2023-03-01T05:42:56;95811.06;;;4.73
34310;BMP280;61664;48.112;11.662;2023-03-01T05:45:25;95814.06;;;4.75
34310;BMP280;61664;48.112;11.662;2023-03-01T05:47:54;95798.28;;;4.68
34310;BMP280;61664;48.112;11.662;2023-03-01T05:50:31;95791.56;;;4.63
34310;BMP280;61664;48.112;11.662;2023-03-01T05:53:05;95800.38;;;4.57
34310;BMP280;61664;48.112;11.662;2023-03-01T05:55:32;95794.72;;;4.55
34310;BMP280;61664;48.112;11.662;2023-03-01T05:58:05;95807.84;;;4.62
34310;BMP280;61664;48.112;11.662;2023-03-01T06:00:33;95806.81;;;4.56
34310;BMP280;61664;48.112;11.662;2023-03-01T06:03:00;95803.47;;;4.52
34310;BMP280;61664;48.112;11.662;2023-03-01T06:05:28;95815.16;;;4.54
34310;BMP280;61664;48.112;11.662;2023-03-01T06:07:58;95809.97;;;4.47
34310;BMP280;61664;48.112;11.662;2023-03-01T06:10:25;95810.38;;;4.45
34310;BMP280;61664;48.112;11.662;2023-03-01T06:12:53;95821.19;;;4.55
34310;BMP280;61664;48.112;11.662;2023-03-01T06:15:21;95827.16;;;4.59
34310;BMP280;61664;48.112;11.662;2023-03-01T06:17:49;95825.97;;;4.63
34310;BMP280;61664;48.112;11.662;2023-03-01T06:20:18;95820.25;;;4.65
34310;BMP280;61664;48.112;11.662;2023-03-01T06:22:47;95818.88;;;4.57
34310;BMP280;61664;48.112;11.662;2023-03-01T06:25:17;95822.56;;;4.63
34310;BMP280;61664;48.112;11.662;2023-03-01T06:27:46;95821.31;;;4.71
34310;BMP280;61664;48.112;11.662;2023-03-01T06:30:16;95804.72;;;4.67
34310;BMP280;61664;48.112;11.662;2023-03-01T06:32:43;95820.72;;;4.83
34310;BMP280;61664;48.112;11.662;2023-03-01T06:35:13;95817.25;;;4.86
34310;BMP280;61664;48.112;11.662;2023-03-01T06:37:41;95824.34;;;4.93
34310;BMP280;61664;48.112;11.662;2023-03-01T06:40:11;95822.75;;;4.95
34310;BMP280;61664;48.112;11.662;2023-03-01T06:42:41;95807.72;;;4.92
34310;BMP280;61664;48.112;11.662;2023-03-01T06:45:09;95822.66;;;5.02
34310;BMP280;61664;48.112;11.662;2023-03-01T06:47:36;95809.03;;;5.00
34310;BMP280;61664;48.112;11.662;2023-03-01T06:50:03;95822.03;;;5.15
34310;BMP280;61664;48.112;11.662;2023-03-01T06:52:31;95819.31;;;5.18
34310;BMP280;61664;48.112;11.662;2023-03-01T06:54:58;95800.13;;;5.11
34310;BMP280;61664;48.112;11.662;2023-03-01T06:57:26;95807.94;;;5.21
34310;BMP280;61664;48.112;11.662;2023-03-01T06:59:53;95829.28;;;5.30
34310;BMP280;61664;48.112;11.662;2023-03-01T07:02:20;95830.06;;;5.31
34310;BMP280;61664;48.112;11.662;2023-03-01T07:04:50;95822.31;;;5.20
34310;BMP280;61664;48.112;11.662;2023-03-01T07:07:18;95831.38;;;5.23
34310;BMP280;61664;48.112;11.662;2023-03-01T07:09:46;95823.81;;;5.21
34310;BMP280;61664;48.112;11.662;2023-03-01T07:12:15;95827.22;;;5.22
34310;BMP280;61664;48.112;11.662;2023-03-01T07:14:44;95812.13;;;5.19
34310;BMP280;61664;48.112;11.662;2023-03-01T07:17:10;95815.81;;;5.25
34310;BMP280;61664;48.112;11.662;2023-03-01T07:19:37;95815.28;;;5.30
34310;BMP280;61664;48.112;11.662;2023-03-01T07:22:04;95805.63;;;5.23
34310;BMP280;61664;48.112;11.662;2023-03-01T07:24:34;95799.16;;;5.24
34310;BMP280;61664;48.112;11.662;2023-03-01T07:27:01;95802.91;;;5.27
34310;BMP280;61664;48.112;11.662;2023-03-01T07:29:28;95803.63;;;5.27
34310;BMP280;61664;48.112;11.662;2023-03-01T07:31:55;95799.00;;;5.31
34310;BMP280;61664;48.112;11.662;2023-03-01T07:34:22;95809.22;;;5.33
34310;BMP280;61664;48.112;11.662;2023-03-01T07:36:49;95805.72;;;5.36
34310;BMP280;61664;48.112;11.662;2023-03-01T07:39:16;95796.16;;;5.42
34310;BMP280;61664;48.112;11.662;2023-03-01T07:41:45;95767.25;;;5.28
34310;BMP280;61664;48.112;11.662;2023-03-01T07:44:12;95786.63;;;5.45
34310;BMP280;61664;48.112;11.662;2023-03-01T07:46:39;95804.97;;;5.55
34310;BMP280;61664;48.112;11.662;2023-03-01T07:49:06;95787.72;;;5.47
34310;BMP280;61664;48.112;11.662;2023-03-01T07:51:33;95799.59;;;5.59
34310;BMP280;61664;48.112;11.662;2023-03-01T07:54:00;95789.06;;;5.55
34310;BMP280;61664;48.112;11.662;2023-03-01T07:56:27;95782.28;;;5.54
34310;BMP280;61664;48.112;11.662;2023-03-01T07:58:54;95795.72;;;5.63
34310;BMP280;61664;48.112;11.662;2023-03-01T08:01:21;95789.59;;;5.66
34310;BMP280;61664;48.112;11.662;2023-03-01T08:03:48;95783.41;;;5.73
34310;BMP280;61664;48.112;11.662;2023-03-01T08:06:17;95805.72;;;5.92
34310;BMP280;61664;48.112;11.662;2023-03-01T08:08:45;95801.06;;;5.96
34310;BMP280;61664;48.112;11.662;2023-03-01T08:11:14;95793.94;;;5.93
34310;BMP280;61664;48.112;11.662;2023-03-01T08:13:43;95797.84;;;6.05
34310;BMP280;61664;48.112;11.662;2023-03-01T08:16:13;95781.19;;;6.04
34310;BMP280;61664;48.112;11.662;2023-03-01T08:18:42;95778.56;;;6.04
34310;BMP280;61664;48.112;11.662;2023-03-01T08:21:13;95782.53;;;6.12
34310;BMP280;61664;48.112;11.662;2023-03-01T08:23:41;95796.03;;;6.18
34310;BMP280;61664;48.112;11.662;2023-03-01T08:26:28;95781.56;;;6.19
34310;BMP280;61664;48.112;11.662;2023-03-01T08:28:55;95775.47;;;6.22
34310;BMP280;61664;48.112;11.662;2023-03-01T08:31:31;95781.00;;;6.27
34310;BMP280;61664;48.112;11.662;2023-03-01T08:34:01;95793.97;;;6.42
34310;BMP280;61664;48.112;11.662;2023-03-01T08:36:33;95786.47;;;6.37
34310;BMP280;61664;48.112;11.662;2023-03-01T08:39:02;95788.66;;;6.42
34310;BMP280;61664;48.112;11.662;2023-03-01T08:41:29;95775.78;;;6.40
34310;BMP280;61664;48.112;11.662;2023-03-01T08:43:57;95772.50;;;6.49
34310;BMP280;61664;48.112;11.662;2023-03-01T08:46:39;95773.66;;;6.64
34310;BMP280;61664;48.112;11.662;2023-03-01T08:49:12;95762.75;;;6.75
34310;BMP280;61664;48.112;11.662;2023-03-01T08:51:40;95771.63;;;6.84
34310;BMP280;61664;48.112;11.662;2023-03-01T08:54:13;95785.38;;;6.95
34310;BMP280;61664;48.112;11.662;2023-03-01T08:56:42;95773.13;;;6.98
34310;BMP280;61664;48.112;11.662;2023-03-01T08:59:11;95771.22;;;6.99
34310;BMP280;61664;48.112;11.662;2023-03-01T09:01:38;95762.81;;;7.00
34310;BMP280;61664;48.112;11.662;2023-03-01T09:04:06;95773.09;;;7.14
34310;BMP280;61664;48.112;11.662;2023-03-01T09:06:34;95768.50;;;7.15
34310;BMP280;61664;48.112;11.662;2023-03-01T09:09:04;95777.03;;;7.22
34310;BMP280;61664;48.112;11.662;2023-03-01T09:11:31;95765.44;;;7.16
34310;BMP280;61664;48.112;11.662;2023-03-01T09:13:59;95769.69;;;7.26
34310;BMP280;61664;48.112;11.662;2023-03-01T09:16:26;95770.97;;;7.35
34310;BMP280;61664;48.112;11.662;2023-03-01T09:18:54;95758.00;;;7.37
34310;BMP280;61664;48.112;11.662;2023-03-01T09:21:23;95750.03;;;7.37
34310;BMP280;61664;48.112;11.662;2023-03-01T09:24:12;95767.59;;;7.47
34310;BMP280;61664;48.112;11.662;2023-03-01T09:26:40;95753.13;;;7.48
34310;BMP280;61664;48.112;11.662;2023-03-01T09:29:07;95748.22;;;7.59
34310;BMP280;61664;48.112;11.662;2023-03-01T09:31:36;95751.31;;;7.70
34310;BMP280;61664;48.112;11.662;2023-03-01T09:34:03;95750.06;;;7.75
34310;BMP280;61664;48.112;11.662;2023-03-01T09:36:31;95760.03;;;7.96
34310;BMP280;61664;48.112;11.662;2023-03-01T09:38:59;95751.94;;;8.00
34310;BMP280;61664;48.112;11.662;2023-03-01T09:44:32;95757.53;;;8.14
34310;BMP280;61664;48.112;11.662;2023-03-01T09:47:02;95737.03;;;8.02
34310;BMP280;61664;48.112;11.662;2023-03-01T09:49:41;95747.78;;;8.11
34310;BMP280;61664;48.112;11.662;2023-03-01T09:52:19;95753.94;;;8.21
34310;BMP280;61664;48.112;11.662;2023-03-01T09:54:54;95747.59;;;8.28
34310;BMP280;61664;48.112;11.662;2023-03-01T09:57:41;95763.41;;;8.44
34310;BMP280;61664;48.112;11.662;2023-03-01T10:03:36;95734.50;;;8.55
34310;BMP280;61664;48.112;11.662;2023-03-01T10:06:19;95748.69;;;8.74
34310;BMP280;61664;48.112;11.662;2023-03-01T10:09:12;95750.72;;;8.82
34310;BMP280;61664;48.112;11.662;2023-03-01T10:11:52;95753.97;;;8.86
34310;BMP280;61664;48.112;11.662;2023-03-01T10:14:36;95740.28;;;8.75
34310;BMP280;61664;48.112;11.662;2023-03-01T10:19:58;95730.19;;;8.92
34310;BMP280;61664;48.112;11.662;2023-03-01T10:22:37;95724.91;;;9.01
34310;BMP280;61664;48.112;11.662;2023-03-01T10:25:05;95729.56;;;9.19
34310;BMP280;61664;48.112;11.662;2023-03-01T10:27:54;95734.25;;;9.37
34310;BMP280;61664;48.112;11.662;2023-03-01T10:30:39;95730.03;;;9.58
34310;BMP280;61664;48.112;11.662;2023-03-01T10:35:48;95724.75;;;9.94
34310;BMP280;61664;48.112;11.662;2023-03-01T10:38:17;95739.16;;;10.70
34310;BMP280;61664;48.112;11.662;2023-03-01T10:40:59;95721.41;;;11.89
34310;BMP280;61664;48.112;11.662;2023-03-01T10:43:45;95722.50;;;13.45
34310;BMP280;61664;48.112;11.662;2023-03-01T10:46:31;95724.63;;;15.05
34310;BMP280;61664;48.112;11.662;2023-03-01T10:49:17;95722.19;;;16.42
34310;BMP280;61664;48.112;11.662;2023-03-01T10:51:49;95695.19;;;16.93
34310;BMP280;61664;48.112;11.662;2023-03-01T10:54:22;95706.25;;;16.56
34310;BMP280;61664;48.112;11.662;2023-03-01T10:56:57;95689.91;;;15.66
34310;BMP280;61664;48.112;11.662;2023-03-01T10:59:29;95697.00;;;14.79
34310;BMP280;61664;48.112;11.662;2023-03-01T11:02:15;95677.84;;;14.65
34310;BMP280;61664;48.112;11.662;2023-03-01T11:05:21;95678.34;;;15.44
34310;BMP280;61664;48.112;11.662;2023-03-01T11:07:53;95675.81;;;16.05
34310;BMP280;61664;48.112;11.662;2023-03-01T11:10:35;95652.31;;;16.44
34310;BMP280;61664;48.112;11.662;2023-03-01T11:13:20;95658.69;;;16.58
34310;BMP280;61664;48.112;11.662;2023-03-01T11:16:10;95643.47;;;16.61
34310;BMP280;61664;48.112;11.662;2023-03-01T11:18:39;95639.78;;;16.69
34310;BMP280;61664;48.112;11.662;2023-03-01T11:21:16;95636.09;;;16.67
34310;BMP280;61664;48.112;11.662;2023-03-01T11:23:46;95643.22;;;16.64
34310;BMP280;61664;48.112;11.662;2023-03-01T11:26:17;95635.63;;;16.24
34310;BMP280;61664;48.112;11.662;2023-03-01T11:28:50;95640.72;;;15.77
34310;BMP280;61664;48.112;11.662;2023-03-01T11:31:19;95632.00;;;15.23
34310;BMP280;61664;48.112;11.662;2023-03-01T11:34:05;95639.66;;;14.56
34310;BMP280;61664;48.112;11.662;2023-03-01T11:36:56;95636.69;;;13.71
34310;BMP280;61664;48.112;11.662;2023-03-01T11:39:37;95618.97;;;13.18
34310;BMP280;61664;48.112;11.662;2023-03-01T11:45:11;95613.28;;;12.61
34310;BMP280;61664;48.112;11.662;2023-03-01T11:50:40;95618.69;;;12.46
34310;BMP280;61664;48.112;11.662;2023-03-01T11:56:20;95613.25;;;12.11
34310;BMP280;61664;48.112;11.662;2023-03-01T12:07:07;95608.38;;;11.71
34310;BMP280;61664;48.112;11.662;2023-03-01T12:10:25;95591.81;;;11.58
34310;BMP280;61664;48.112;11.662;2023-03-01T12:13:50;95591.47;;;11.65
34310;BMP280;61664;48.112;11.662;2023-03-01T12:26:34;95558.25;;;11.86
34310;BMP280;61664;48.112;11.662;2023-03-01T12:29:26;95577.47;;;11.99
34310;BMP280;61664;48.112;11.662;2023-03-01T12:35:16;95574.06;;;11.84
34310;BMP280;61664;48.112;11.662;2023-03-01T12:38:08;95568.41;;;11.67
34310;BMP280;61664;48.112;11.662;2023-03-01T12:49:48;95569.88;;;11.30
34310;BMP280;61664;48.112;11.662;2023-03-01T12:52:35;95555.81;;;11.20
34310;BMP280;61664;48.112;11.662;2023-03-01T12:55:23;95556.94;;;11.28
34310;BMP280;61664;48.112;11.662;2023-03-01T13:00:47;95542.50;;;11.35
34310;BMP280;61664;48.112;11.662;2023-03-01T13:03:48;95551.47;;;11.46
34310;BMP280;61664;48.112;11.662;2023-03-01T13:28:50;95528.06;;;11.71
34310;BMP280;61664;48.112;11.662;2023-03-01T13:33:50;95522.09;;;11.76
34310;BMP280;61664;48.112;11.662;2023-03-01T13:39:00;95528.28;;;11.97
34310;BMP280;61664;48.112;11.662;2023-03-01T13:44:26;95539.41;;;12.10
34310;BMP280;61664;48.112;11.662;2023-03-01T13:49:59;95534.44;;;12.17
34310;BMP280;61664;48.112;11.662;2023-03-01T13:52:43;95526.78;;;12.10
34310;BMP280;61664;48.112;11.662;2023-03-01T13:57:45;95498.16;;;12.02
34310;BMP280;61664;48.112;11.662;2023-03-01T14:00:36;95509.81;;;12.13
34310;BMP280;61664;48.112;11.662;2023-03-01T14:06:05;95521.03;;;12.32
34310;BMP280;61664;48.112;11.662;2023-03-01T14:08:41;95504.88;;;12.27
34310;BMP280;61664;48.112;11.662;2023-03-01T14:14:32;95519.00;;;12.27
34310;BMP280;61664;48.112;11.662;2023-03-01T14:19:57;95495.72;;;12.33
34310;BMP280;61664;48.112;11.662;2023-03-01T14:22:30;95491.78;;;12.49
34310;BMP280;61664;48.112;11.662;2023-03-01T14:25:14;95477.88;;;12.65
34310;BMP280;61664;48.112;11.662;2023-03-01T14:27:44;95493.16;;;13.00
34310;BMP280;61664;48.112;11.662;2023-03-01T14:30:30;95484.78;;;13.38
34310;BMP280;61664;48.112;11.662;2023-03-01T14:33:02;95487.88;;;14.20
34310;BMP280;61664;48.112;11.662;2023-03-01T14:35:35;95476.56;;;15.12
34310;BMP280;61664;48.112;11.662;2023-03-01T14:38:03;95475.91;;;16.01
34310;BMP280;61664;48.112;11.662;2023-03-01T14:40:34;95472.72;;;16.77
34310;BMP280;61664;48.112;11.662;2023-03-01T14:43:11;95468.91;;;17.43
34310;BMP280;61664;48.112;11.662;2023-03-01T14:45:38;95462.47;;;17.76
34310;BMP280;61664;48.112;11.662;2023-03-01T14:48:07;95478.34;;;17.85
34310;BMP280;61664;48.112;11.662;2023-03-01T14:50:41;95480.38;;;17.49
34310;BMP280;61664;48.112;11.662;2023-03-01T14:53:27;95476.03;;;17.05
34310;BMP280;61664;48.112;11.662;2023-03-01T14:55:59;95473.03;;;16.62
34310;BMP280;61664;48.112;11.662;2023-03-01T14:58:32;95467.00;;;16.28
34310;BMP280;61664;48.112;11.662;2023-03-01T15:01:03;95479.56;;;16.03
34310;BMP280;61664;48.112;11.662;2023-03-01T15:03:41;95465.63;;;15.83
34310;BMP280;61664;48.112;11.662;2023-03-01T15:06:14;95461.94;;;15.63
34310;BMP280;61664;48.112;11.662;2023-03-01T15:08:48;95467.13;;;15.72
34310;BMP280;61664;48.112;11.662;2023-03-01T15:11:29;95459.69;;;16.12
34310;BMP280;61664;48.112;11.662;2023-03-01T15:13:58;95456.59;;;16.66
34310;BMP280;61664;48.112;11.662;2023-03-01T15:16:33;95464.41;;;17.16
34310;BMP280;61664;48.112;11.662;2023-03-01T15:19:05;95471.31;;;17.77
34310;BMP280;61664;48.112;11.662;2023-03-01T15:21:36;95467.91;;;18.25
34310;BMP280;61664;48.112;11.662;2023-03-01T15:27:00;95474.72;;;19.06
34310;BMP280;61664;48.112;11.662;2023-03-01T15:29:34;95466.81;;;19.27
34310;BMP280;61664;48.112;11.662;2023-03-01T15:32:33;95466.50;;;19.63
34310;BMP280;61664;48.112;11.662;2023-03-01T15:35:43;95466.50;;;19.89
34310;BMP280;61664;48.112;11.662;2023-03-01T15:38:51;95460.91;;;20.00
34310;BMP280;61664;48.112;11.662;2023-03-01T15:41:32;95468.66;;;19.77
34310;BMP280;61664;48.112;11.662;2023-03-01T15:44:23;95471.22;;;19.43
34310;BMP280;61664;48.112;11.662;2023-03-01T15:46:56;95468.88;;;19.21
34310;BMP280;61664;48.112;11.662;2023-03-01T15:49:39;95470.94;;;19.15
34310;BMP280;61664;48.112;11.662;2023-03-01T15:52:36;95473.84;;;19.17
34310;BMP280;61664;48.112;11.662;2023-03-01T15:55:23;95457.31;;;19.02
34310;BMP280;61664;48.112;11.662;2023-03-01T15:57:58;95469.47;;;18.95
34310;BMP280;61664;48.112;11.662;2023-03-01T16:00:27;95461.31;;;18.82
34310;BMP280;61664;48.112;11.662;2023-03-01T16:02:56;95447.38;;;18.35
34310;BMP280;61664;48.112;11.662;2023-03-01T16:05:34;95456.31;;;17.81
34310;BMP280;61664;48.112;11.662;2023-03-01T16:08:02;95444.81;;;17.10
34310;BMP280;61664;48.112;11.662;2023-03-01T16:10:30;95412.88;;;16.32
34310;BMP280;61664;48.112;11.662;2023-03-01T16:12:58;95444.53;;;15.98
34310;BMP280;61664;48.112;11.662;2023-03-01T16:15:29;95452.44;;;15.51
34310;BMP280;61664;48.112;11.662;2023-03-01T16:17:58;95459.00;;;15.11
34310;BMP280;61664;48.112;11.662;2023-03-01T16:20:28;95462.00;;;14.65
34310;BMP280;61664;48.112;11.662;2023-03-01T16:23:05;95454.22;;;14.24
34310;BMP280;61664;48.112;11.662;2023-03-01T16:25:35;95439.06;;;13.84
34310;BMP280;61664;48.112;11.662;2023-03-01T16:28:03;95448.09;;;13.55
34310;BMP280;61664;48.112;11.662;2023-03-01T16:30:38;95450.75;;;13.24
34310;BMP280;61664;48.112;11.662;2023-03-01T16:33:07;95449.81;;;13.01
34310;BMP280;61664;48.112;11.662;2023-03-01T16:35:55;95445.50;;;12.69